createdAt,value
2022-07-29T00:02:28.638Z,25.05
2022-07-29T00:05:14.658Z,25.05
2022-07-29T00:08:00.796Z,24.99
2022-07-29T00:10:46.942Z,24.98
2022-07-29T00:13:33.042Z,24.99
2022-07-29T00:16:18.933Z,24.98
2022-07-29T00:19:04.839Z,24.96
2022-07-29T00:21:51.062Z,24.93
2022-07-29T00:24:37.203Z,24.91
2022-07-29T00:27:23.340Z,24.91
2022-07-29T00:30:09.810Z,24.90
2022-07-29T00:32:55.508Z,24.86
2022-07-29T00:35:47.257Z,24.77
2022-07-29T00:38:32.925Z,24.80
2022-07-29T00:41:19.382Z,24.81
2022-07-29T00:44:05.219Z,24.80
2022-07-29T00:46:51.671Z,24.77
2022-07-29T00:49:39.931Z,24.78
2022-07-29T00:52:26.105Z,24.78
2022-07-29T00:55:15.683Z,24.77
2022-07-29T00:58:01.654Z,24.75
2022-07-29T01:00:47.527Z,24.67
2022-07-29T01:03:33.356Z,24.67
2022-07-29T01:06:20.266Z,24.61
2022-07-29T01:09:06.869Z,24.62
2022-07-29T01:11:53.130Z,24.56
2022-07-29T01:14:39.377Z,24.55
2022-07-29T01:17:28.902Z,24.51
2022-07-29T01:20:37.626Z,24.42
2022-07-29T01:23:53.911Z,24.39
2022-07-29T01:26:48.861Z,24.40
2022-07-29T01:29:40.457Z,24.41
2022-07-29T01:32:30.408Z,24.37
2022-07-29T01:35:26.243Z,24.40
2022-07-29T01:38:21.935Z,24.39
2022-07-29T01:41:14.139Z,24.39
2022-07-29T01:44:03.992Z,24.41
2022-07-29T01:46:55.747Z,24.39
2022-07-29T01:49:47.999Z,24.37
2022-07-29T01:52:57.474Z,24.34
2022-07-29T01:55:46.010Z,24.36
2022-07-29T01:58:32.951Z,24.33
2022-07-29T02:01:19.206Z,24.34
2022-07-29T02:04:07.320Z,24.36
2022-07-29T02:06:54.483Z,24.34
2022-07-29T02:09:40.926Z,24.32
2022-07-29T02:12:29.095Z,24.33
2022-07-29T02:15:15.885Z,24.29
2022-07-29T02:18:17.248Z,24.25
2022-07-29T02:21:04.630Z,24.27
2022-07-29T02:23:54.056Z,24.26
2022-07-29T02:26:41.732Z,24.22
2022-07-29T02:29:29.278Z,24.24
2022-07-29T02:32:15.773Z,24.21
2022-07-29T02:35:02.717Z,24.23
2022-07-29T02:38:12.673Z,24.21
2022-07-29T02:41:00.246Z,24.20
2022-07-29T02:43:49.311Z,24.17
2022-07-29T02:46:37.201Z,24.19
2022-07-29T02:49:36.778Z,24.15
2022-07-29T02:52:28.743Z,24.10
2022-07-29T02:55:25.441Z,24.12
2022-07-29T02:58:34.848Z,24.07
2022-07-29T03:01:25.578Z,24.01
2022-07-29T03:04:13.498Z,23.99
2022-07-29T03:07:00.757Z,23.99
2022-07-29T03:09:46.843Z,23.93
2022-07-29T03:12:32.795Z,23.86
2022-07-29T03:15:19.864Z,23.86
2022-07-29T03:18:06.967Z,23.82
2022-07-29T03:20:53.213Z,23.77
2022-07-29T03:23:45.349Z,23.75
2022-07-29T03:26:32.386Z,23.71
2022-07-29T03:29:18.170Z,23.68
2022-07-29T03:32:08.143Z,23.66
2022-07-29T03:34:54.533Z,23.63
2022-07-29T03:37:40.204Z,23.62
2022-07-29T03:40:45.861Z,23.57
2022-07-29T03:43:34.323Z,23.57
2022-07-29T03:46:22.328Z,23.57
2022-07-29T03:49:09.586Z,23.52
2022-07-29T03:51:55.975Z,23.52
2022-07-29T03:54:41.884Z,23.50
2022-07-29T03:57:29.643Z,23.51
2022-07-29T04:00:19.707Z,23.51
2022-07-29T04:03:10.656Z,23.54
2022-07-29T04:06:09.316Z,23.53
2022-07-29T04:08:55.200Z,23.55
2022-07-29T04:12:01.773Z,23.57
2022-07-29T04:14:49.824Z,23.56
2022-07-29T04:17:36.298Z,23.56
2022-07-29T04:20:22.941Z,23.61
2022-07-29T04:23:09.165Z,23.61
2022-07-29T04:25:55.197Z,23.58
2022-07-29T04:28:41.510Z,23.62
2022-07-29T04:31:27.629Z,23.61
2022-07-29T04:34:14.091Z,23.63
2022-07-29T04:37:00.155Z,23.65
2022-07-29T04:39:46.130Z,23.64
2022-07-29T04:42:31.857Z,23.60
2022-07-29T04:45:22.654Z,23.57
2022-07-29T04:48:09.078Z,23.56
2022-07-29T04:50:54.797Z,23.51
2022-07-29T04:53:40.487Z,23.51
2022-07-29T04:56:26.535Z,23.49
2022-07-29T04:59:12.255Z,23.46
2022-07-29T05:01:59.557Z,23.47
2022-07-29T05:04:45.573Z,23.43
2022-07-29T05:07:31.303Z,23.46
2022-07-29T05:10:16.958Z,23.45
2022-07-29T05:13:02.794Z,23.46
2022-07-29T05:15:48.736Z,23.44
2022-07-29T05:18:34.555Z,23.45
2022-07-29T05:21:20.389Z,23.43
2022-07-29T05:24:06.562Z,23.46
2022-07-29T05:26:52.462Z,23.48
2022-07-29T05:29:44.048Z,23.48
2022-07-29T05:32:31.488Z,23.52
2022-07-29T05:35:17.883Z,23.57
2022-07-29T05:38:04.430Z,23.59
2022-07-29T05:40:53.590Z,23.61
2022-07-29T05:43:39.403Z,23.63
2022-07-29T05:46:25.406Z,23.69
2022-07-29T05:49:11.676Z,23.73
2022-07-29T05:52:14.201Z,23.71
2022-07-29T05:55:02.227Z,23.75
2022-07-29T05:57:48.224Z,23.78
2022-07-29T06:00:33.951Z,23.79
2022-07-29T06:03:19.849Z,23.81
2022-07-29T06:06:07.084Z,23.79
2022-07-29T06:08:53.188Z,23.84
2022-07-29T06:11:38.839Z,23.80
2022-07-29T06:14:27.568Z,23.85
2022-07-29T06:17:13.349Z,23.88
2022-07-29T06:19:59.421Z,23.84
2022-07-29T06:22:45.196Z,23.87
2022-07-29T06:25:31.379Z,23.83
2022-07-29T06:28:17.424Z,23.86
2022-07-29T06:31:03.448Z,23.87
2022-07-29T06:33:49.266Z,23.85
2022-07-29T06:36:39.733Z,23.87
2022-07-29T06:39:27.172Z,23.83
2022-07-29T06:42:13.140Z,23.93
2022-07-29T06:45:00.741Z,24.00
2022-07-29T06:47:46.655Z,24.00
2022-07-29T06:50:32.936Z,24.09
2022-07-29T06:53:18.581Z,24.09
2022-07-29T06:56:05.453Z,24.15
2022-07-29T06:58:51.605Z,24.23
2022-07-29T07:01:39.198Z,24.25
2022-07-29T07:04:25.165Z,24.31
2022-07-29T07:07:11.102Z,24.30
2022-07-29T07:09:57.093Z,24.38
2022-07-29T07:12:42.787Z,24.41
2022-07-29T07:15:38.974Z,24.48
2022-07-29T07:18:26.071Z,24.48
2022-07-29T07:21:12.428Z,24.54
2022-07-29T07:24:07.482Z,24.60
2022-07-29T07:26:53.374Z,24.65
2022-07-29T07:29:44.230Z,24.68
2022-07-29T07:32:30.635Z,24.73
2022-07-29T07:35:16.911Z,24.78
2022-07-29T07:38:03.023Z,24.83
2022-07-29T07:40:49.084Z,24.89
2022-07-29T07:43:35.047Z,24.94
2022-07-29T07:46:21.252Z,24.95
2022-07-29T07:49:07.379Z,25.02
2022-07-29T07:51:53.648Z,25.06
2022-07-29T07:54:39.494Z,25.10
2022-07-29T07:57:25.402Z,25.15
2022-07-29T08:00:12.833Z,25.20
2022-07-29T08:02:59.048Z,25.22
2022-07-29T08:05:45.294Z,25.25
2022-07-29T08:08:31.190Z,25.33
2022-07-29T08:11:16.896Z,25.36
2022-07-29T08:14:02.789Z,25.38
2022-07-29T08:16:49.011Z,25.45
2022-07-29T08:19:35.200Z,25.47
2022-07-29T08:22:21.014Z,25.52
2022-07-29T08:25:07.211Z,25.54
2022-07-29T08:27:52.866Z,25.59
2022-07-29T08:30:38.799Z,25.60
2022-07-29T08:33:24.850Z,25.64
2022-07-29T08:36:11.068Z,25.67
2022-07-29T08:38:57.638Z,25.74
2022-07-29T08:41:57.485Z,25.77
2022-07-29T08:44:43.927Z,25.81
2022-07-29T08:47:29.908Z,25.83
2022-07-29T08:50:15.938Z,25.89
2022-07-29T08:53:01.822Z,25.87
2022-07-29T08:55:50.730Z,25.95
2022-07-29T08:58:38.568Z,25.97
2022-07-29T09:01:36.064Z,26.01
2022-07-29T09:04:32.489Z,26.03
2022-07-29T09:07:20.129Z,26.07
2022-07-29T09:10:07.221Z,26.11
2022-07-29T09:12:53.517Z,26.18
2022-07-29T09:15:39.637Z,26.21
2022-07-29T09:18:45.802Z,26.25
2022-07-29T09:22:00.387Z,26.31
2022-07-29T09:24:48.634Z,26.34
2022-07-29T09:27:35.358Z,26.38
2022-07-29T09:30:25.513Z,26.43
2022-07-29T09:33:22.122Z,26.46
2022-07-29T09:36:12.913Z,26.49
2022-07-29T09:39:04.797Z,26.53
2022-07-29T09:41:53.875Z,26.63
2022-07-29T09:44:51.005Z,26.68
2022-07-29T09:47:48.844Z,26.72
2022-07-29T09:50:42.276Z,26.78
2022-07-29T09:53:38.953Z,26.83
2022-07-29T09:56:41.553Z,26.88
2022-07-29T09:59:29.215Z,26.95
2022-07-29T10:02:23.502Z,27.02
2022-07-29T10:05:36.248Z,27.07
2022-07-29T10:08:27.928Z,27.10
2022-07-29T10:11:15.885Z,27.16
2022-07-29T10:14:04.616Z,27.22
2022-07-29T10:16:50.435Z,27.26
2022-07-29T10:19:37.967Z,27.33
2022-07-29T10:22:51.441Z,27.38
2022-07-29T10:25:32.862Z,27.42
2022-07-29T10:28:27.488Z,27.49
2022-07-29T10:31:35.299Z,27.54
2022-07-29T10:34:58.290Z,27.61
2022-07-29T10:38:06.723Z,27.70
2022-07-29T10:41:27.262Z,27.77
2022-07-29T10:44:19.376Z,27.86
2022-07-29T10:47:27.519Z,27.90
2022-07-29T10:50:17.156Z,27.95
2022-07-29T10:53:04.902Z,28.01
2022-07-29T10:55:57.718Z,28.01
2022-07-29T10:58:44.575Z,28.03
2022-07-29T11:01:40.061Z,28.03
2022-07-29T11:04:44.785Z,28.09
2022-07-29T11:07:45.789Z,28.15
2022-07-29T11:10:33.312Z,28.16
2022-07-29T11:13:51.544Z,28.23
2022-07-29T11:17:03.132Z,28.29
2022-07-29T11:20:31.270Z,28.36
2022-07-29T11:23:40.414Z,28.43
2022-07-29T11:26:28.927Z,28.53
2022-07-29T11:29:25.536Z,28.60
2022-07-29T11:32:22.737Z,28.67
2022-07-29T11:35:19.281Z,28.75
2022-07-29T11:38:32.038Z,28.82
2022-07-29T11:41:28.757Z,28.90
2022-07-29T11:44:18.030Z,28.99
2022-07-29T11:47:04.697Z,29.07
2022-07-29T11:49:53.548Z,29.14
2022-07-29T11:52:49.794Z,29.22
2022-07-29T11:55:50.794Z,29.21
2022-07-29T11:58:38.486Z,29.20
2022-07-29T12:01:25.604Z,29.17
2022-07-29T12:04:14.058Z,29.13
2022-07-29T12:07:00.686Z,29.11
2022-07-29T12:09:53.893Z,29.09
2022-07-29T12:12:43.026Z,29.09
2022-07-29T12:15:45.579Z,29.09
2022-07-29T12:18:33.244Z,29.09
2022-07-29T12:21:19.121Z,29.13
2022-07-29T12:24:11.635Z,29.17
2022-07-29T12:26:58.978Z,29.20
2022-07-29T12:29:47.979Z,29.22
2022-07-29T12:32:40.350Z,29.25
2022-07-29T12:35:26.686Z,29.23
2022-07-29T12:38:13.450Z,29.25
2022-07-29T12:40:59.647Z,29.28
2022-07-29T12:43:55.790Z,29.32
2022-07-29T12:46:41.610Z,29.36
2022-07-29T12:49:27.857Z,29.39
2022-07-29T12:52:33.440Z,29.44
2022-07-29T12:55:42.642Z,29.50
2022-07-29T12:58:40.302Z,29.53
2022-07-29T13:01:28.304Z,29.58
2022-07-29T13:04:28.787Z,29.63
2022-07-29T13:07:15.509Z,29.68
2022-07-29T13:10:15.907Z,29.74
2022-07-29T13:13:10.672Z,29.82
2022-07-29T13:16:09.203Z,29.86
2022-07-29T13:19:06.526Z,29.92
2022-07-29T13:21:52.257Z,30.01
2022-07-29T13:24:48.046Z,30.08
2022-07-29T13:27:37.331Z,30.19
2022-07-29T13:30:24.295Z,30.36
2022-07-29T13:33:10.412Z,30.65
2022-07-29T13:35:56.309Z,30.98
2022-07-29T13:38:42.349Z,31.35
2022-07-29T13:41:28.625Z,31.67
2022-07-29T13:44:14.560Z,31.96
2022-07-29T13:47:01.543Z,32.18
2022-07-29T13:49:47.717Z,32.33
2022-07-29T13:52:34.556Z,32.48
2022-07-29T13:55:20.822Z,32.65
2022-07-29T13:58:07.008Z,32.81
2022-07-29T14:00:53.146Z,32.98
2022-07-29T14:03:45.737Z,33.20
2022-07-29T14:06:36.120Z,33.44
2022-07-29T14:09:26.711Z,33.68
2022-07-29T14:12:12.991Z,33.94
2022-07-29T14:14:59.174Z,34.21
2022-07-29T14:17:45.142Z,34.48
2022-07-29T14:20:32.268Z,34.76
2022-07-29T14:23:20.166Z,35.00
2022-07-29T14:26:08.751Z,35.24
2022-07-29T14:28:59.154Z,35.45
2022-07-29T14:31:45.046Z,35.70
2022-07-29T14:34:31.274Z,35.87
2022-07-29T14:37:17.440Z,36.06
2022-07-29T14:40:05.169Z,36.27
2022-07-29T14:42:50.850Z,36.47
2022-07-29T14:45:37.145Z,36.69
2022-07-29T14:48:23.129Z,36.85
2022-07-29T14:51:09.117Z,36.69
2022-07-29T14:53:55.132Z,36.30
2022-07-29T14:56:46.530Z,35.80
2022-07-29T14:59:34.346Z,35.22
2022-07-29T15:02:20.708Z,34.77
2022-07-29T15:05:07.408Z,34.30
2022-07-29T15:07:53.546Z,33.94
2022-07-29T15:10:39.665Z,33.57
2022-07-29T15:13:26.376Z,33.29
2022-07-29T15:16:12.747Z,33.05
2022-07-29T15:19:01.125Z,32.82
2022-07-29T15:21:48.762Z,32.63
2022-07-29T15:24:46.250Z,32.46
2022-07-29T15:27:32.525Z,32.32
2022-07-29T15:30:32.529Z,32.19
2022-07-29T15:33:20.586Z,32.06
2022-07-29T15:36:06.817Z,32.09
2022-07-29T15:38:55.968Z,32.22
2022-07-29T15:41:41.893Z,32.35
2022-07-29T15:44:27.730Z,32.41
2022-07-29T15:47:13.721Z,32.45
2022-07-29T15:50:02.250Z,32.44
2022-07-29T15:52:48.341Z,32.37
2022-07-29T15:55:34.435Z,32.31
2022-07-29T15:58:21.742Z,32.22
2022-07-29T16:01:07.448Z,32.11
2022-07-29T16:03:53.975Z,32.02
2022-07-29T16:06:40.377Z,31.89
2022-07-29T16:09:26.974Z,31.81
2022-07-29T16:12:15.354Z,31.70
2022-07-29T16:15:03.961Z,31.59
2022-07-29T16:17:53.429Z,31.49
2022-07-29T16:20:39.338Z,31.41
2022-07-29T16:23:25.334Z,31.32
2022-07-29T16:26:12.041Z,31.25
2022-07-29T16:28:58.325Z,31.17
2022-07-29T16:31:44.578Z,31.14
2022-07-29T16:34:30.730Z,31.04
2022-07-29T16:37:16.653Z,31.00
2022-07-29T16:40:04.716Z,31.00
2022-07-29T16:42:50.452Z,31.00
2022-07-29T16:45:41.883Z,31.00
2022-07-29T16:48:33.810Z,31.01
2022-07-29T16:51:22.204Z,31.01
2022-07-29T16:54:10.785Z,30.97
2022-07-29T16:56:57.304Z,30.95
2022-07-29T16:59:43.948Z,30.88
2022-07-29T17:02:30.313Z,30.81
2022-07-29T17:05:16.861Z,30.78
2022-07-29T17:08:03.129Z,30.79
2022-07-29T17:10:49.617Z,30.72
2022-07-29T17:13:35.388Z,30.72
2022-07-29T17:16:24.807Z,30.70
2022-07-29T17:19:10.859Z,30.55
2022-07-29T17:22:03.546Z,30.58
2022-07-29T17:24:56.207Z,30.37
2022-07-29T17:27:43.437Z,30.45
2022-07-29T17:30:30.097Z,30.30
2022-07-29T17:33:16.298Z,30.26
2022-07-29T17:36:20.892Z,30.17
2022-07-29T17:39:08.875Z,30.13
2022-07-29T17:41:54.894Z,30.07
2022-07-29T17:44:41.570Z,30.07
2022-07-29T17:47:27.434Z,30.01
2022-07-29T17:50:13.767Z,30.01
2022-07-29T17:53:00.032Z,29.96
2022-07-29T17:55:47.692Z,29.92
2022-07-29T17:58:34.121Z,29.85
2022-07-29T18:01:21.013Z,29.85
2022-07-29T18:04:10.454Z,29.76
2022-07-29T18:06:56.585Z,29.73
2022-07-29T18:09:42.698Z,29.71
2022-07-29T18:12:29.003Z,29.63
2022-07-29T18:15:15.495Z,29.57
2022-07-29T18:18:01.463Z,29.55
2022-07-29T18:20:47.927Z,29.51
2022-07-29T18:23:33.925Z,29.44
2022-07-29T18:26:20.112Z,29.36
2022-07-29T18:29:06.167Z,29.31
2022-07-29T18:31:55.834Z,29.29
2022-07-29T18:34:42.140Z,29.25
2022-07-29T18:38:00.284Z,29.20
2022-07-29T18:40:36.141Z,29.13
2022-07-29T18:43:22.203Z,29.05
2022-07-29T18:46:08.304Z,29.01
2022-07-29T18:48:54.598Z,28.94
2022-07-29T18:51:41.613Z,28.87
2022-07-29T18:54:28.524Z,28.84
2022-07-29T18:57:55.391Z,28.81
2022-07-29T19:00:24.567Z,28.73
2022-07-29T19:03:10.872Z,28.69
2022-07-29T19:05:56.879Z,28.66
2022-07-29T19:08:42.795Z,28.59
2022-07-29T19:11:29.026Z,28.56
2022-07-29T19:14:15.188Z,28.53
2022-07-29T19:17:01.275Z,28.51
2022-07-29T19:19:47.436Z,28.48
2022-07-29T19:22:33.549Z,28.41
2022-07-29T19:25:19.710Z,28.41
2022-07-29T19:28:05.833Z,28.37
2022-07-29T19:30:52.223Z,28.36
2022-07-29T19:33:38.549Z,28.35
2022-07-29T19:36:24.775Z,28.36
2022-07-29T19:39:11.534Z,28.34
2022-07-29T19:42:02.911Z,28.32
2022-07-29T19:44:49.630Z,28.27
2022-07-29T19:47:35.950Z,28.29
2022-07-29T19:50:22.924Z,28.27
2022-07-29T19:53:08.877Z,28.20
2022-07-29T19:55:55.071Z,28.16
2022-07-29T19:58:41.327Z,28.13
2022-07-29T20:01:27.573Z,28.08
2022-07-29T20:04:13.669Z,28.01
2022-07-29T20:07:01.629Z,28.00
2022-07-29T20:09:49.422Z,27.96
2022-07-29T20:12:37.577Z,27.89
2022-07-29T20:15:23.615Z,27.87
2022-07-29T20:18:09.652Z,27.84
2022-07-29T20:20:57.550Z,27.79
2022-07-29T20:23:43.585Z,27.72
2022-07-29T20:26:29.961Z,27.69
2022-07-29T20:29:16.207Z,27.67
2022-07-29T20:32:02.577Z,27.66
2022-07-29T20:34:48.638Z,27.62
2022-07-29T20:37:34.662Z,27.59
2022-07-29T20:40:40.080Z,27.58
2022-07-29T20:43:27.213Z,27.53
2022-07-29T20:46:13.321Z,27.46
2022-07-29T20:48:59.643Z,27.45
2022-07-29T20:51:45.487Z,27.45
2022-07-29T20:54:31.541Z,27.39
2022-07-29T20:57:18.086Z,27.36
2022-07-29T21:00:25.171Z,27.34
2022-07-29T21:03:11.225Z,27.27
2022-07-29T21:05:57.220Z,27.24
2022-07-29T21:08:43.414Z,27.22
2022-07-29T21:11:43.770Z,27.22
2022-07-29T21:14:37.466Z,27.14
2022-07-29T21:17:23.525Z,27.12
2022-07-29T21:20:09.900Z,27.07
2022-07-29T21:22:56.135Z,27.00
2022-07-29T21:25:42.229Z,26.99
2022-07-29T21:28:29.393Z,26.94
2022-07-29T21:31:16.997Z,26.92
2022-07-29T21:34:02.978Z,26.89
2022-07-29T21:36:51.954Z,26.88
2022-07-29T21:39:38.882Z,26.83
2022-07-29T21:42:24.675Z,26.83
2022-07-29T21:45:10.811Z,26.82
2022-07-29T21:47:57.886Z,26.79
2022-07-29T21:50:44.353Z,26.78
2022-07-29T21:53:30.747Z,26.76
2022-07-29T21:56:16.687Z,26.75
2022-07-29T21:59:04.097Z,26.71
2022-07-29T22:01:56.132Z,26.68
2022-07-29T22:04:42.307Z,26.67
2022-07-29T22:07:56.563Z,26.63
2022-07-29T22:10:35.791Z,26.60
2022-07-29T22:13:21.591Z,26.60
2022-07-29T22:16:09.535Z,26.62
2022-07-29T22:18:55.716Z,26.59
2022-07-29T22:21:42.185Z,26.57
2022-07-29T22:24:27.967Z,26.59
2022-07-29T22:27:14.005Z,26.57
2022-07-29T22:29:59.868Z,26.52
2022-07-29T22:32:45.803Z,26.51
2022-07-29T22:35:32.038Z,26.45
2022-07-29T22:38:18.673Z,26.38
2022-07-29T22:41:04.639Z,26.37
2022-07-29T22:43:50.469Z,26.34
2022-07-29T22:46:37.839Z,26.28
2022-07-29T22:49:23.773Z,26.27
2022-07-29T22:52:10.093Z,26.21
2022-07-29T22:54:55.917Z,26.21
2022-07-29T22:57:42.354Z,26.21
2022-07-29T23:00:28.150Z,26.16
2022-07-29T23:03:14.214Z,26.14
2022-07-29T23:06:00.543Z,26.16
2022-07-29T23:08:46.537Z,26.08
2022-07-29T23:11:36.012Z,26.05
2022-07-29T23:14:24.376Z,26.04
2022-07-29T23:17:10.116Z,26.02
2022-07-29T23:19:55.771Z,25.99
2022-07-29T23:22:42.255Z,25.95
2022-07-29T23:25:28.122Z,25.99
2022-07-29T23:28:14.372Z,26.00
2022-07-29T23:31:00.246Z,26.01
2022-07-29T23:33:46.143Z,25.99
2022-07-29T23:36:32.233Z,25.97
2022-07-29T23:39:18.166Z,25.93
2022-07-29T23:42:04.938Z,25.90
2022-07-29T23:44:51.091Z,25.88
2022-07-29T23:47:37.092Z,25.89
2022-07-29T23:50:23.300Z,25.88
2022-07-29T23:53:12.223Z,25.82
2022-07-29T23:55:58.508Z,25.81
2022-07-29T23:58:44.243Z,25.78
